createdAt,value
2022-11-29T00:01:37.480Z,18.45
2022-11-29T00:04:07.519Z,18.85
2022-11-29T00:06:35.720Z,18.45
2022-11-29T00:09:08.490Z,19.80
2022-11-29T00:11:55.880Z,20.40
2022-11-29T00:14:24.764Z,19.10
2022-11-29T00:16:54.717Z,19.50
2022-11-29T00:19:22.675Z,19.65
2022-11-29T00:21:50.018Z,19.20
2022-11-29T00:24:18.024Z,19.17
2022-11-29T00:26:45.032Z,19.63
2022-11-29T00:29:13.299Z,18.95
2022-11-29T00:31:41.866Z,18.15
2022-11-29T00:34:11.649Z,19.48
2022-11-29T00:36:38.840Z,18.92
2022-11-29T00:39:06.901Z,19.98
2022-11-29T00:41:34.014Z,18.90
2022-11-29T00:44:01.267Z,18.83
2022-11-29T00:46:28.355Z,19.30
2022-11-29T00:48:55.671Z,19.88
2022-11-29T00:51:22.873Z,18.65
2022-11-29T00:53:50.169Z,19.17
2022-11-29T00:56:17.469Z,19.80
2022-11-29T00:58:44.779Z,19.42
2022-11-29T01:01:12.142Z,17.58
2022-11-29T01:03:39.960Z,19.33
2022-11-29T01:06:13.398Z,19.58
2022-11-29T01:08:43.448Z,18.95
2022-11-29T01:11:27.701Z,19.38
2022-11-29T01:13:59.000Z,18.23
2022-11-29T01:16:30.455Z,17.85
2022-11-29T01:19:00.572Z,18.73
2022-11-29T01:21:27.605Z,18.13
2022-11-29T01:23:57.542Z,18.67
2022-11-29T01:26:27.972Z,19.40
2022-11-29T01:28:56.662Z,17.58
2022-11-29T01:31:29.768Z,18.25
2022-11-29T01:33:59.533Z,18.40
2022-11-29T01:36:27.711Z,19.00
2022-11-29T01:38:55.302Z,18.55
2022-11-29T01:41:30.689Z,17.58
2022-11-29T01:44:00.574Z,18.08
2022-11-29T01:46:30.861Z,19.17
2022-11-29T01:49:07.804Z,17.65
2022-11-29T01:51:37.297Z,18.98
2022-11-29T01:54:05.799Z,18.17
2022-11-29T01:56:34.742Z,17.52
2022-11-29T01:59:08.801Z,17.65
2022-11-29T02:01:37.506Z,18.73
2022-11-29T02:04:06.002Z,17.65
2022-11-29T02:06:33.808Z,18.48
2022-11-29T02:09:01.255Z,17.73
2022-11-29T02:11:56.182Z,17.95
2022-11-29T02:14:26.451Z,16.92
2022-11-29T02:17:35.620Z,16.83
2022-11-29T02:20:05.742Z,17.17
2022-11-29T02:22:47.975Z,15.93
2022-11-29T02:25:37.489Z,19.60
2022-11-29T02:28:10.750Z,18.95
2022-11-29T02:30:53.336Z,18.98
2022-11-29T02:33:54.315Z,18.75
2022-11-29T02:36:50.116Z,17.98
2022-11-29T02:39:32.346Z,18.73
2022-11-29T02:42:15.693Z,19.42
2022-11-29T02:45:00.838Z,20.75
2022-11-29T02:47:44.076Z,19.93
2022-11-29T02:50:13.751Z,20.30
2022-11-29T02:53:18.608Z,19.77
2022-11-29T02:55:56.083Z,19.00
2022-11-29T02:58:26.422Z,20.38
2022-11-29T03:01:40.331Z,19.67
2022-11-29T03:04:23.464Z,19.92
2022-11-29T03:06:56.758Z,18.60
2022-11-29T03:09:46.782Z,18.85
2022-11-29T03:12:13.685Z,20.38
2022-11-29T03:14:40.913Z,20.90
2022-11-29T03:17:20.235Z,20.52
2022-11-29T03:20:09.506Z,19.30
2022-11-29T03:23:04.051Z,20.15
2022-11-29T03:25:42.536Z,19.17
2022-11-29T03:28:38.648Z,18.73
2022-11-29T03:31:14.223Z,20.05
2022-11-29T03:33:48.529Z,20.20
2022-11-29T03:36:40.032Z,19.77
2022-11-29T03:39:17.318Z,19.17
2022-11-29T03:41:51.697Z,19.05
2022-11-29T03:44:22.644Z,20.13
2022-11-29T03:47:07.239Z,19.98
2022-11-29T03:49:46.613Z,20.23
2022-11-29T03:52:27.218Z,20.10
2022-11-29T03:54:57.191Z,19.30
2022-11-29T03:57:42.426Z,19.40
2022-11-29T04:00:12.923Z,20.27
2022-11-29T04:03:09.580Z,20.83
2022-11-29T04:05:48.593Z,20.10
2022-11-29T04:08:21.803Z,20.25
2022-11-29T04:11:13.906Z,21.80
2022-11-29T04:14:02.527Z,20.88
2022-11-29T04:16:42.206Z,19.67
2022-11-29T04:19:37.494Z,20.20
2022-11-29T04:22:47.847Z,21.48
2022-11-29T04:25:39.220Z,20.83
2022-11-29T04:28:37.082Z,21.45
2022-11-29T04:31:25.223Z,21.48
2022-11-29T04:34:24.738Z,20.65
2022-11-29T04:37:19.993Z,21.98
2022-11-29T04:40:08.792Z,21.55
2022-11-29T04:42:57.632Z,21.80
2022-11-29T04:45:44.444Z,22.60
2022-11-29T04:48:20.675Z,21.05
2022-11-29T04:56:36.803Z,23.20
2022-11-29T04:59:23.265Z,22.33
2022-11-29T05:02:28.798Z,23.55
2022-11-29T05:04:59.122Z,25.00
2022-11-29T05:08:10.713Z,24.88
2022-11-29T05:11:08.398Z,25.13
2022-11-29T05:13:59.670Z,25.42
2022-11-29T05:16:33.087Z,24.33
2022-11-29T05:19:18.359Z,25.65
2022-11-29T05:22:13.014Z,23.75
2022-11-29T05:24:46.514Z,24.65
2022-11-29T05:27:37.843Z,25.85
2022-11-29T05:30:14.184Z,25.23
2022-11-29T05:33:02.845Z,25.58
2022-11-29T05:35:50.875Z,24.65
2022-11-29T05:38:40.459Z,23.63
2022-11-29T05:41:39.502Z,25.25
2022-11-29T05:44:15.561Z,24.17
2022-11-29T05:49:46.561Z,24.65
2022-11-29T05:52:25.102Z,24.45
2022-11-29T05:55:14.002Z,24.70
2022-11-29T05:57:43.976Z,26.63
2022-11-29T06:00:14.631Z,24.75
2022-11-29T06:03:06.335Z,25.55
2022-11-29T06:05:58.421Z,25.95
2022-11-29T06:08:44.657Z,25.05
2022-11-29T06:11:37.719Z,25.83
2022-11-29T06:14:24.410Z,26.02
2022-11-29T06:17:49.910Z,25.35
2022-11-29T06:20:38.181Z,25.88
2022-11-29T06:23:30.158Z,25.67
2022-11-29T06:26:03.483Z,24.40
2022-11-29T06:28:51.843Z,25.00
2022-11-29T06:31:18.895Z,27.10
2022-11-29T06:34:07.971Z,26.98
2022-11-29T06:36:43.553Z,25.90
2022-11-29T06:39:11.415Z,25.15
2022-11-29T06:41:40.653Z,25.33
2022-11-29T06:44:08.656Z,23.98
2022-11-29T06:46:40.959Z,26.80
2022-11-29T06:49:19.347Z,26.05
2022-11-29T06:52:02.555Z,23.98
2022-11-29T06:55:08.402Z,24.98
2022-11-29T06:57:47.372Z,25.35
2022-11-29T07:00:19.457Z,25.30
2022-11-29T07:03:08.088Z,26.00
2022-11-29T07:05:38.692Z,26.17
2022-11-29T07:08:19.132Z,24.80
2022-11-29T07:10:50.138Z,26.63
2022-11-29T07:13:18.869Z,26.25
2022-11-29T07:16:06.584Z,24.42
2022-11-29T07:18:58.819Z,24.98
2022-11-29T07:21:38.205Z,23.00
2022-11-29T07:24:08.172Z,24.75
2022-11-29T07:26:46.430Z,23.73
2022-11-29T07:29:47.880Z,24.95
2022-11-29T07:32:59.864Z,23.63
2022-11-29T07:35:45.685Z,22.05
2022-11-29T07:38:22.150Z,16.73
2022-11-29T07:41:04.853Z,22.88
2022-11-29T07:43:56.895Z,22.85
2022-11-29T07:46:25.629Z,23.25
2022-11-29T07:48:55.484Z,24.05
2022-11-29T07:51:22.812Z,23.63
2022-11-29T07:53:50.160Z,22.85
2022-11-29T07:56:17.337Z,23.05
2022-11-29T07:58:44.887Z,23.58
2022-11-29T08:01:12.037Z,22.33
2022-11-29T08:03:41.651Z,22.33
2022-11-29T08:06:09.073Z,21.85
2022-11-29T08:08:43.898Z,22.98
2022-11-29T08:11:13.004Z,16.87
2022-11-29T08:13:40.294Z,22.35
2022-11-29T08:16:07.684Z,21.92
2022-11-29T08:18:36.565Z,21.33
2022-11-29T08:21:07.552Z,21.58
2022-11-29T08:23:34.864Z,21.35
2022-11-29T08:26:05.557Z,21.00
2022-11-29T08:28:32.868Z,21.83
2022-11-29T08:31:07.997Z,20.88
2022-11-29T08:33:37.517Z,21.15
2022-11-29T08:36:06.405Z,21.65
2022-11-29T08:38:38.477Z,20.20
2022-11-29T08:41:09.671Z,20.80
2022-11-29T08:43:37.074Z,21.30
2022-11-29T08:46:04.578Z,20.50
2022-11-29T08:48:32.257Z,19.75
2022-11-29T08:50:59.272Z,21.60
2022-11-29T08:53:43.198Z,20.63
2022-11-29T08:59:06.224Z,20.73
2022-11-29T09:01:34.423Z,20.00
2022-11-29T09:04:07.097Z,20.35
2022-11-29T09:06:39.577Z,20.85
2022-11-29T09:09:07.281Z,19.50
2022-11-29T09:11:36.219Z,20.15
2022-11-29T09:14:12.083Z,19.35
2022-11-29T09:16:39.112Z,20.50
2022-11-29T09:19:07.312Z,18.67
2022-11-29T09:21:36.800Z,18.42
2022-11-29T09:24:06.569Z,20.92
2022-11-29T09:26:38.098Z,18.77
2022-11-29T09:29:06.681Z,19.52
2022-11-29T09:31:35.075Z,18.27
2022-11-29T09:34:02.635Z,18.67
2022-11-29T09:36:31.004Z,19.88
2022-11-29T09:39:02.936Z,20.15
2022-11-29T09:41:48.333Z,20.08
2022-11-29T09:44:20.266Z,18.92
2022-11-29T09:47:17.141Z,19.77
2022-11-29T09:50:09.442Z,18.60
2022-11-29T09:52:58.476Z,18.48
2022-11-29T09:55:55.982Z,17.80
2022-11-29T09:58:31.940Z,17.02
2022-11-29T10:01:08.406Z,16.38
2022-11-29T10:03:49.109Z,16.08
2022-11-29T10:06:29.179Z,16.00
2022-11-29T10:09:04.251Z,17.50
2022-11-29T10:11:54.476Z,18.83
2022-11-29T10:14:27.321Z,17.38
2022-11-29T10:17:29.318Z,18.42
2022-11-29T10:20:03.600Z,18.25
2022-11-29T10:22:43.994Z,17.02
2022-11-29T10:25:20.359Z,17.88
2022-11-29T10:27:47.626Z,18.67
2022-11-29T10:30:16.213Z,16.83
2022-11-29T10:32:46.854Z,17.85
2022-11-29T10:35:20.709Z,17.00
2022-11-29T10:38:22.278Z,17.02
2022-11-29T10:40:39.897Z,18.58
2022-11-29T10:43:09.057Z,17.45
2022-11-29T10:45:46.011Z,17.75
2022-11-29T10:48:19.259Z,17.60
2022-11-29T10:50:48.829Z,17.05
2022-11-29T10:53:19.969Z,16.70
2022-11-29T10:55:56.181Z,17.05
2022-11-29T10:58:28.275Z,16.08
2022-11-29T11:01:07.022Z,17.45
2022-11-29T11:03:42.821Z,16.60
2022-11-29T11:06:21.394Z,17.05
2022-11-29T11:08:55.556Z,17.80
2022-11-29T11:11:27.153Z,17.90
2022-11-29T11:14:21.998Z,16.33
2022-11-29T11:16:49.573Z,15.73
2022-11-29T11:19:34.575Z,18.45
2022-11-29T11:22:03.313Z,17.58
2022-11-29T11:24:33.487Z,17.48
2022-11-29T11:27:01.440Z,17.55
2022-11-29T11:29:41.805Z,17.70
2022-11-29T11:32:20.245Z,17.38
2022-11-29T11:34:56.631Z,18.02
2022-11-29T11:37:32.452Z,17.85
2022-11-29T11:40:18.856Z,16.15
2022-11-29T11:45:13.718Z,17.38
2022-11-29T11:47:51.881Z,17.50
2022-11-29T11:50:32.761Z,17.45
2022-11-29T11:53:07.114Z,17.83
2022-11-29T11:55:39.597Z,17.08
2022-11-29T11:58:16.189Z,17.13
2022-11-29T12:01:08.105Z,16.80
2022-11-29T12:03:56.899Z,17.60
2022-11-29T12:06:40.037Z,17.13
2022-11-29T12:09:25.331Z,17.48
2022-11-29T12:12:16.306Z,14.20
2022-11-29T12:15:02.025Z,17.08
2022-11-29T12:17:40.791Z,17.58
2022-11-29T12:20:13.864Z,17.27
2022-11-29T12:22:53.309Z,17.48
2022-11-29T12:25:32.297Z,17.08
2022-11-29T12:27:59.854Z,17.85
2022-11-29T12:30:27.133Z,16.35
2022-11-29T12:33:37.914Z,16.48
2022-11-29T12:36:10.581Z,17.00
2022-11-29T12:39:14.032Z,16.02
2022-11-29T12:41:53.786Z,21.77
2022-11-29T12:44:37.754Z,20.20
2022-11-29T12:47:35.325Z,18.35
2022-11-29T12:53:00.169Z,18.08
2022-11-29T12:55:46.397Z,25.90
2022-11-29T12:58:30.495Z,22.60
2022-11-29T13:01:26.339Z,14.82
2022-11-29T13:04:08.245Z,15.65
2022-11-29T13:06:55.818Z,16.77
2022-11-29T13:09:29.486Z,18.15
2022-11-29T13:12:13.051Z,15.25
2022-11-29T13:15:02.297Z,16.15
2022-11-29T13:17:40.140Z,15.10
2022-11-29T13:20:33.678Z,16.42
2022-11-29T13:23:45.723Z,15.52
2022-11-29T13:26:16.699Z,18.23
2022-11-29T13:28:46.655Z,17.38
2022-11-29T13:31:25.567Z,19.25
2022-11-29T13:33:58.913Z,17.17
2022-11-29T13:36:50.873Z,17.20
2022-11-29T13:39:58.206Z,17.15
2022-11-29T13:45:31.828Z,14.80
2022-11-29T13:48:01.245Z,15.57
2022-11-29T13:50:36.343Z,16.35
2022-11-29T13:53:11.872Z,15.03
2022-11-29T13:55:51.734Z,15.43
2022-11-29T13:58:21.422Z,17.15
2022-11-29T14:00:52.239Z,17.55
2022-11-29T14:03:26.140Z,16.73
2022-11-29T14:06:04.833Z,17.20
2022-11-29T14:11:43.888Z,16.17
2022-11-29T14:14:21.255Z,16.35
2022-11-29T14:17:05.112Z,20.35
2022-11-29T14:19:34.638Z,16.50
2022-11-29T14:22:01.925Z,18.02
2022-11-29T14:24:32.047Z,21.33
2022-11-29T14:27:14.585Z,17.73
2022-11-29T14:29:50.899Z,17.55
2022-11-29T14:32:24.316Z,18.55
2022-11-29T14:35:12.759Z,18.95
2022-11-29T14:38:06.591Z,18.45
2022-11-29T14:40:45.810Z,17.92
2022-11-29T14:43:22.471Z,18.83
2022-11-29T14:46:28.983Z,18.90
2022-11-29T14:51:26.667Z,17.55
2022-11-29T14:54:15.429Z,18.33
2022-11-29T14:56:45.008Z,18.70
2022-11-29T14:59:40.409Z,18.20
2022-11-29T15:02:12.799Z,17.98
2022-11-29T15:04:43.322Z,15.77
2022-11-29T15:07:17.351Z,18.52
2022-11-29T15:09:48.805Z,19.08
2022-11-29T15:12:31.903Z,17.85
2022-11-29T15:15:30.359Z,19.00
2022-11-29T15:18:22.230Z,19.90
2022-11-29T15:21:03.913Z,17.95
2022-11-29T15:23:41.450Z,19.95
2022-11-29T15:26:21.032Z,19.77
2022-11-29T15:28:50.451Z,20.20
2022-11-29T15:31:20.585Z,19.65
2022-11-29T15:33:49.744Z,20.63
2022-11-29T15:36:22.656Z,20.85
2022-11-29T15:38:52.240Z,21.08
2022-11-29T15:41:26.886Z,22.83
2022-11-29T15:43:58.265Z,20.60
2022-11-29T15:46:27.758Z,21.88
2022-11-29T15:48:56.136Z,21.75
2022-11-29T15:51:37.626Z,21.27
2022-11-29T15:54:13.996Z,22.05
2022-11-29T15:56:49.604Z,21.25
2022-11-29T15:59:34.614Z,21.85
2022-11-29T16:02:16.941Z,20.88
2022-11-29T16:04:47.351Z,20.85
2022-11-29T16:07:18.813Z,21.55
2022-11-29T16:09:52.088Z,22.27
2022-11-29T16:12:19.532Z,21.55
2022-11-29T16:15:01.226Z,22.30
2022-11-29T16:17:36.565Z,22.77
2022-11-29T16:20:19.422Z,21.57
2022-11-29T16:23:04.146Z,22.55
2022-11-29T16:25:37.356Z,22.88
2022-11-29T16:28:13.008Z,22.85
2022-11-29T16:30:44.026Z,23.70
2022-11-29T16:33:24.191Z,22.20
2022-11-29T16:36:02.606Z,24.33
2022-11-29T16:38:30.339Z,23.80
2022-11-29T16:41:08.634Z,24.27
2022-11-29T16:43:47.598Z,24.17
2022-11-29T16:46:30.302Z,24.45
2022-11-29T16:49:00.944Z,24.38
2022-11-29T16:51:39.146Z,24.73
2022-11-29T16:54:23.424Z,22.88
2022-11-29T16:56:53.277Z,25.00
2022-11-29T16:59:27.435Z,25.60
2022-11-29T17:01:57.104Z,26.25
2022-11-29T17:04:25.875Z,25.95
2022-11-29T17:06:57.966Z,24.98
2022-11-29T17:09:28.313Z,23.98
2022-11-29T17:12:01.232Z,26.20
2022-11-29T17:14:29.559Z,29.45
2022-11-29T17:16:57.417Z,36.97
2022-11-29T17:19:29.714Z,29.38
2022-11-29T17:21:57.318Z,30.35
2022-11-29T17:24:24.986Z,30.50
2022-11-29T17:26:52.601Z,26.48
2022-11-29T17:29:20.519Z,25.67
2022-11-29T17:31:56.559Z,24.10
2022-11-29T17:34:24.959Z,27.55
2022-11-29T17:36:55.043Z,28.95
2022-11-29T17:39:23.980Z,26.55
2022-11-29T17:41:51.959Z,25.65
2022-11-29T17:44:19.949Z,26.08
2022-11-29T17:46:50.405Z,28.95
2022-11-29T17:49:38.596Z,28.90
2022-11-29T17:52:05.854Z,28.48
2022-11-29T17:54:33.657Z,27.35
2022-11-29T17:57:04.127Z,26.25
2022-11-29T17:59:32.064Z,26.27
2022-11-29T18:02:04.998Z,25.55
2022-11-29T18:04:35.146Z,26.55
2022-11-29T18:07:03.136Z,26.27
2022-11-29T18:09:31.092Z,24.77
2022-11-29T18:12:02.671Z,26.05
2022-11-29T18:17:12.942Z,27.45
2022-11-29T18:19:43.171Z,27.45
2022-11-29T18:22:11.250Z,30.77
2022-11-29T18:24:44.737Z,34.55
2022-11-29T18:27:12.368Z,38.72
2022-11-29T18:29:40.619Z,34.63
2022-11-29T18:32:08.631Z,32.22
2022-11-29T18:34:36.949Z,30.80
2022-11-29T18:37:05.218Z,29.17
2022-11-29T18:39:33.236Z,26.92
2022-11-29T18:42:01.128Z,28.70
2022-11-29T18:44:33.349Z,28.05
2022-11-29T18:47:04.456Z,26.05
2022-11-29T18:49:32.321Z,28.20
2022-11-29T18:52:03.719Z,28.10
2022-11-29T18:54:31.581Z,27.92
2022-11-29T18:56:59.370Z,28.85
2022-11-29T18:59:30.777Z,28.95
2022-11-29T19:01:59.395Z,29.77
2022-11-29T19:04:27.971Z,29.10
2022-11-29T19:06:58.122Z,29.42
2022-11-29T19:09:26.175Z,28.63
2022-11-29T19:11:57.126Z,31.02
2022-11-29T19:14:25.357Z,30.85
2022-11-29T19:16:53.558Z,30.05
2022-11-29T19:19:23.467Z,29.45
2022-11-29T19:21:51.881Z,29.40
2022-11-29T19:24:30.064Z,30.30
2022-11-29T19:26:58.167Z,31.83
2022-11-29T19:29:26.417Z,30.90
2022-11-29T19:31:55.717Z,30.20
2022-11-29T19:34:24.402Z,29.10
2022-11-29T19:36:55.243Z,29.98
2022-11-29T19:39:29.312Z,28.95
2022-11-29T19:41:57.448Z,29.58
2022-11-29T19:44:29.886Z,29.52
2022-11-29T19:46:59.462Z,28.73
2022-11-29T19:49:27.980Z,29.33
2022-11-29T19:51:56.092Z,30.75
2022-11-29T19:54:24.304Z,29.33
2022-11-29T19:56:52.970Z,29.33
2022-11-29T19:59:23.487Z,29.17
2022-11-29T20:01:52.107Z,29.45
2022-11-29T20:04:20.744Z,29.73
2022-11-29T20:06:52.121Z,29.67
2022-11-29T20:09:22.917Z,30.92
2022-11-29T20:11:51.969Z,30.40
2022-11-29T20:14:25.303Z,30.17
2022-11-29T20:16:55.317Z,30.42
2022-11-29T20:19:24.019Z,31.05
2022-11-29T20:21:53.086Z,29.83
2022-11-29T20:24:21.797Z,31.75
2022-11-29T20:26:50.368Z,29.92
2022-11-29T20:29:22.485Z,31.25
2022-11-29T20:31:51.372Z,29.75
2022-11-29T20:34:22.303Z,29.30
2022-11-29T20:37:19.507Z,31.90
2022-11-29T20:40:19.721Z,31.77
2022-11-29T20:43:04.370Z,31.88
2022-11-29T20:45:35.050Z,32.20
2022-11-29T20:48:19.944Z,33.90
2022-11-29T20:51:00.664Z,32.10
2022-11-29T20:53:31.271Z,31.70
2022-11-29T20:56:01.320Z,32.45
2022-11-29T20:58:29.570Z,32.55
2022-11-29T21:00:59.798Z,32.88
2022-11-29T21:03:29.484Z,31.92
2022-11-29T21:05:58.558Z,31.92
2022-11-29T21:08:27.241Z,32.47
2022-11-29T21:10:55.573Z,30.80
2022-11-29T21:13:23.763Z,32.78
2022-11-29T21:15:54.615Z,32.25
2022-11-29T21:18:25.443Z,31.90
2022-11-29T21:21:28.750Z,32.97
2022-11-29T21:23:57.661Z,33.08
2022-11-29T21:26:37.160Z,35.95
2022-11-29T21:29:10.280Z,33.95
2022-11-29T21:31:37.965Z,34.50
2022-11-29T21:34:08.920Z,34.33
2022-11-29T21:36:37.567Z,32.58
2022-11-29T21:39:10.937Z,33.35
2022-11-29T21:41:39.028Z,31.88
2022-11-29T21:44:07.744Z,32.65
2022-11-29T21:46:35.538Z,32.78
2022-11-29T21:49:02.841Z,33.70
2022-11-29T21:51:30.138Z,34.50
2022-11-29T21:53:57.143Z,33.55
2022-11-29T21:56:24.614Z,35.85
2022-11-29T21:58:51.672Z,33.70
2022-11-29T22:01:20.659Z,33.55
2022-11-29T22:03:48.185Z,34.03
2022-11-29T22:06:24.388Z,31.30
2022-11-29T22:08:51.794Z,32.10
2022-11-29T22:11:36.622Z,32.15
2022-11-29T22:14:18.874Z,31.33
2022-11-29T22:16:53.878Z,32.13
2022-11-29T22:19:28.475Z,29.25
2022-11-29T22:22:01.531Z,30.70
2022-11-29T22:24:32.168Z,31.90
2022-11-29T22:26:59.883Z,29.45
2022-11-29T22:29:29.717Z,31.40
2022-11-29T22:31:59.381Z,29.40
2022-11-29T22:34:27.617Z,31.60
2022-11-29T22:36:56.354Z,29.98
2022-11-29T22:39:24.161Z,29.85
2022-11-29T22:42:01.219Z,27.95
2022-11-29T22:44:30.354Z,28.25
2022-11-29T22:46:58.362Z,30.58
2022-11-29T22:49:25.835Z,29.67
2022-11-29T22:51:53.854Z,30.77
2022-11-29T22:54:21.134Z,30.30
2022-11-29T22:56:48.901Z,31.15
2022-11-29T22:59:16.008Z,30.95
2022-11-29T23:01:44.145Z,28.88
2022-11-29T23:04:13.207Z,28.73
2022-11-29T23:06:45.045Z,28.88
2022-11-29T23:09:16.575Z,28.95
2022-11-29T23:11:48.544Z,29.50
2022-11-29T23:14:16.106Z,30.23
2022-11-29T23:16:43.686Z,28.55
2022-11-29T23:19:10.746Z,29.92
2022-11-29T23:21:40.102Z,30.75
2022-11-29T23:24:07.416Z,28.73
2022-11-29T23:26:40.359Z,28.55
2022-11-29T23:29:10.246Z,29.58
2022-11-29T23:31:37.789Z,30.10
2022-11-29T23:34:05.497Z,30.60
2022-11-29T23:36:33.472Z,32.60
2022-11-29T23:39:00.976Z,30.33
2022-11-29T23:41:28.410Z,31.23
2022-11-29T23:43:55.392Z,30.92
2022-11-29T23:46:24.079Z,32.15
2022-11-29T23:48:51.319Z,34.60
2022-11-29T23:51:19.761Z,34.03
2022-11-29T23:53:50.958Z,35.95
2022-11-29T23:56:19.962Z,35.53
2022-11-29T23:58:47.300Z,38.03
